createdAt,value
2022-09-07T00:01:17.376Z,3.90
2022-09-07T00:03:43.780Z,4.00
2022-09-07T00:06:11.410Z,3.75
2022-09-07T00:08:38.264Z,3.42
2022-09-07T00:11:06.290Z,3.50
2022-09-07T00:13:33.922Z,3.53
2022-09-07T00:16:04.274Z,3.70
2022-09-07T00:18:31.336Z,3.58
2022-09-07T00:20:59.212Z,3.40
2022-09-07T00:23:26.367Z,3.50
2022-09-07T00:25:54.234Z,3.40
2022-09-07T00:28:20.701Z,3.33
2022-09-07T00:30:47.159Z,3.35
2022-09-07T00:33:13.513Z,3.05
2022-09-07T00:35:40.589Z,3.38
2022-09-07T00:38:06.928Z,3.17
2022-09-07T00:40:33.298Z,3.50
2022-09-07T00:42:59.655Z,3.22
2022-09-07T00:45:26.069Z,3.30
2022-09-07T00:47:55.720Z,3.40
2022-09-07T00:50:25.869Z,3.30
2022-09-07T00:53:02.517Z,3.20
2022-09-07T00:55:29.522Z,3.38
2022-09-07T00:57:56.273Z,2.90
2022-09-07T01:00:22.652Z,2.85
2022-09-07T01:02:50.505Z,2.63
2022-09-07T01:05:29.862Z,2.40
2022-09-07T01:07:57.372Z,2.72
2022-09-07T01:10:24.949Z,2.50
2022-09-07T01:12:51.752Z,3.00
2022-09-07T01:15:18.909Z,3.13
2022-09-07T01:17:45.257Z,3.22
2022-09-07T01:20:30.465Z,3.22
2022-09-07T01:23:06.030Z,3.22
2022-09-07T01:25:58.833Z,3.40
2022-09-07T01:28:27.208Z,3.47
2022-09-07T01:30:58.228Z,3.40
2022-09-07T01:33:32.707Z,3.25
2022-09-07T01:35:59.062Z,3.20
2022-09-07T01:38:35.798Z,3.20
2022-09-07T01:41:04.353Z,2.90
2022-09-07T01:43:38.450Z,3.20
2022-09-07T01:48:32.360Z,3.00
2022-09-07T01:51:03.477Z,2.67
2022-09-07T01:53:39.745Z,2.90
2022-09-07T01:56:23.771Z,2.72
2022-09-07T01:58:57.758Z,2.90
2022-09-07T02:01:25.872Z,3.13
2022-09-07T02:03:57.945Z,3.10
2022-09-07T02:06:50.795Z,3.45
2022-09-07T02:09:27.703Z,3.03
2022-09-07T02:11:54.619Z,3.13
2022-09-07T02:14:25.456Z,3.60
2022-09-07T02:16:55.976Z,3.47
2022-09-07T02:19:23.568Z,3.72
2022-09-07T02:21:58.054Z,3.60
2022-09-07T02:24:27.574Z,4.28
2022-09-07T02:26:54.387Z,4.05
2022-09-07T02:29:21.017Z,3.72
2022-09-07T02:31:47.697Z,4.13
2022-09-07T02:34:14.241Z,3.90
2022-09-07T02:36:43.561Z,4.13
2022-09-07T02:39:09.954Z,4.18
2022-09-07T02:41:43.261Z,4.35
2022-09-07T02:44:12.825Z,5.73
2022-09-07T02:46:54.205Z,6.18
2022-09-07T02:49:32.772Z,6.18
2022-09-07T02:52:22.425Z,6.18
2022-09-07T02:54:54.900Z,6.80
2022-09-07T02:57:31.732Z,6.35
2022-09-07T03:00:15.764Z,7.53
2022-09-07T03:03:00.349Z,7.35
2022-09-07T03:05:38.952Z,7.57
2022-09-07T03:08:31.781Z,6.90
2022-09-07T03:10:58.435Z,7.35
2022-09-07T03:13:26.296Z,7.75
2022-09-07T03:15:55.940Z,7.18
2022-09-07T03:18:23.101Z,6.35
2022-09-07T03:20:49.497Z,7.10
2022-09-07T03:23:15.833Z,6.70
2022-09-07T03:25:42.175Z,6.80
2022-09-07T03:28:08.980Z,6.82
2022-09-07T03:30:35.447Z,6.47
2022-09-07T03:33:01.916Z,7.03
2022-09-07T03:35:28.314Z,6.65
2022-09-07T03:37:54.656Z,6.68
2022-09-07T03:40:21.134Z,7.55
2022-09-07T03:42:48.558Z,6.93
2022-09-07T03:45:14.906Z,6.75
2022-09-07T03:47:41.344Z,7.32
2022-09-07T03:50:08.177Z,8.10
2022-09-07T03:52:35.183Z,8.40
2022-09-07T03:55:01.554Z,7.68
2022-09-07T03:57:27.979Z,7.75
2022-09-07T03:59:54.322Z,7.80
2022-09-07T04:02:20.745Z,7.00
2022-09-07T04:04:47.235Z,7.28
2022-09-07T04:07:14.215Z,7.10
2022-09-07T04:09:40.770Z,7.38
2022-09-07T04:12:07.557Z,7.80
2022-09-07T04:14:33.912Z,8.20
2022-09-07T04:17:00.347Z,8.15
2022-09-07T04:19:26.774Z,7.95
2022-09-07T04:21:53.183Z,7.85
2022-09-07T04:24:19.538Z,6.05
2022-09-07T04:26:45.894Z,6.25
2022-09-07T04:29:12.798Z,6.63
2022-09-07T04:31:39.604Z,7.13
2022-09-07T04:34:06.459Z,7.32
2022-09-07T04:36:33.016Z,7.75
2022-09-07T04:39:00.714Z,6.93
2022-09-07T04:41:27.678Z,8.13
2022-09-07T04:43:55.218Z,7.53
2022-09-07T04:46:29.648Z,7.10
2022-09-07T04:49:00.494Z,6.70
2022-09-07T04:51:29.037Z,7.60
2022-09-07T04:53:57.089Z,7.40
2022-09-07T04:56:24.028Z,7.47
2022-09-07T04:58:50.446Z,9.07
2022-09-07T05:01:18.164Z,8.45
2022-09-07T05:03:45.049Z,9.43
2022-09-07T05:06:11.721Z,9.25
2022-09-07T05:08:39.081Z,9.77
2022-09-07T05:11:05.645Z,8.60
2022-09-07T05:13:32.289Z,8.43
2022-09-07T05:15:59.202Z,8.20
2022-09-07T05:18:25.857Z,8.80
2022-09-07T05:20:52.209Z,9.15
2022-09-07T05:23:18.869Z,8.70
2022-09-07T05:25:46.204Z,9.20
2022-09-07T05:28:15.982Z,8.75
2022-09-07T05:36:18.548Z,8.43
2022-09-07T05:38:44.894Z,8.65
2022-09-07T05:41:15.689Z,8.10
2022-09-07T05:46:28.860Z,7.72
2022-09-07T05:48:55.279Z,7.28
2022-09-07T05:51:21.641Z,7.82
2022-09-07T05:53:48.738Z,7.55
2022-09-07T05:56:15.254Z,7.70
2022-09-07T05:58:41.664Z,7.82
2022-09-07T06:01:09.741Z,7.55
2022-09-07T06:03:37.255Z,7.40
2022-09-07T06:06:05.462Z,6.97
2022-09-07T06:08:32.674Z,6.88
2022-09-07T06:10:59.289Z,7.40
2022-09-07T06:13:25.758Z,6.90
2022-09-07T06:15:52.241Z,6.47
2022-09-07T06:18:18.785Z,6.30
2022-09-07T06:20:45.211Z,6.82
2022-09-07T06:23:11.602Z,7.43
2022-09-07T06:25:38.049Z,6.40
2022-09-07T06:28:04.512Z,6.78
2022-09-07T06:30:31.018Z,6.25
2022-09-07T06:32:57.790Z,4.55
2022-09-07T06:35:24.147Z,4.70
2022-09-07T06:37:50.541Z,4.10
2022-09-07T06:40:17.227Z,4.50
2022-09-07T06:42:43.610Z,5.28
2022-09-07T06:45:11.361Z,4.88
2022-09-07T06:47:38.296Z,4.60
2022-09-07T06:50:04.850Z,4.47
2022-09-07T06:55:17.535Z,2.70
2022-09-07T06:57:43.997Z,3.28
2022-09-07T07:00:10.675Z,3.70
2022-09-07T07:02:37.077Z,3.20
2022-09-07T07:05:03.543Z,2.80
2022-09-07T07:07:30.212Z,2.95
2022-09-07T07:09:56.685Z,2.72
2022-09-07T07:14:48.301Z,2.13
2022-09-07T07:17:14.703Z,2.30
2022-09-07T07:19:41.143Z,1.90
2022-09-07T07:22:23.911Z,2.20
2022-09-07T07:24:53.861Z,2.17
2022-09-07T07:27:21.517Z,2.20
2022-09-07T07:29:47.991Z,2.03
2022-09-07T07:32:14.425Z,2.25
2022-09-07T07:34:40.752Z,2.13
2022-09-07T07:37:07.046Z,2.05
2022-09-07T07:42:21.306Z,2.30
2022-09-07T07:44:47.907Z,2.50
2022-09-07T07:47:14.422Z,2.50
2022-09-07T07:49:40.724Z,2.90
2022-09-07T07:54:53.461Z,2.63
2022-09-07T07:57:19.981Z,2.45
2022-09-07T07:59:46.331Z,2.55
2022-09-07T08:02:16.295Z,2.78
2022-09-07T08:04:42.724Z,2.30
2022-09-07T08:07:11.168Z,2.70
2022-09-07T08:09:41.390Z,2.58
2022-09-07T08:12:08.517Z,2.80
2022-09-07T08:14:40.465Z,2.83
2022-09-07T08:17:07.617Z,2.60
2022-09-07T08:19:33.973Z,2.70
2022-09-07T08:22:00.553Z,2.53
2022-09-07T08:24:26.853Z,2.63
2022-09-07T08:26:53.124Z,2.40
2022-09-07T08:29:19.368Z,2.30
2022-09-07T08:31:45.706Z,2.58
2022-09-07T08:34:12.097Z,2.70
2022-09-07T08:36:38.393Z,2.60
2022-09-07T08:39:04.702Z,2.80
2022-09-07T08:41:46.626Z,2.50
2022-09-07T08:44:16.292Z,2.70
2022-09-07T08:46:45.199Z,2.70
2022-09-07T08:49:16.234Z,3.03
2022-09-07T08:52:03.556Z,2.88
2022-09-07T08:54:30.111Z,2.70
2022-09-07T09:00:07.795Z,2.40
2022-09-07T09:02:40.283Z,2.40
2022-09-07T09:05:33.164Z,2.75
2022-09-07T09:08:05.549Z,2.58
2022-09-07T09:10:39.261Z,2.60
2022-09-07T09:13:16.716Z,2.50
2022-09-07T09:15:43.054Z,2.47
2022-09-07T09:18:24.311Z,2.50
2022-09-07T09:20:53.713Z,2.75
2022-09-07T09:23:21.844Z,2.75
2022-09-07T09:25:55.619Z,2.47
2022-09-07T09:28:22.379Z,2.30
2022-09-07T09:30:48.886Z,2.33
2022-09-07T09:33:17.977Z,2.58
2022-09-07T09:35:45.301Z,2.58
2022-09-07T09:38:29.186Z,2.75
2022-09-07T09:40:56.629Z,2.70
2022-09-07T09:43:28.900Z,2.95
2022-09-07T09:46:12.627Z,2.85
2022-09-07T09:48:40.314Z,2.83
2022-09-07T09:53:56.822Z,2.88
2022-09-07T09:56:35.176Z,2.97
2022-09-07T10:04:45.297Z,2.55
2022-09-07T10:07:19.462Z,2.50
2022-09-07T10:09:49.878Z,2.30
2022-09-07T10:12:35.660Z,2.45
2022-09-07T10:15:04.306Z,2.13
2022-09-07T10:17:33.657Z,2.30
2022-09-07T10:20:21.213Z,2.25
2022-09-07T10:22:53.651Z,2.03
2022-09-07T10:25:33.903Z,2.80
2022-09-07T10:28:06.482Z,2.22
2022-09-07T10:30:37.208Z,2.30
2022-09-07T10:33:17.216Z,2.53
2022-09-07T10:35:53.489Z,2.30
2022-09-07T10:38:21.050Z,2.50
2022-09-07T10:40:51.176Z,2.92
2022-09-07T10:43:36.330Z,2.58
2022-09-07T10:49:15.267Z,2.08
2022-09-07T10:52:01.354Z,2.50
2022-09-07T10:54:36.449Z,2.50
2022-09-07T10:57:05.929Z,2.47
2022-09-07T11:02:29.178Z,3.00
2022-09-07T11:04:55.476Z,2.10
2022-09-07T11:07:30.781Z,2.50
2022-09-07T11:10:03.222Z,2.30
2022-09-07T11:12:32.001Z,2.83
2022-09-07T11:15:04.024Z,2.58
2022-09-07T11:17:30.772Z,2.42
2022-09-07T11:20:02.813Z,2.30
2022-09-07T11:22:32.379Z,2.22
2022-09-07T11:27:52.880Z,2.10
2022-09-07T11:30:21.379Z,2.10
2022-09-07T11:33:07.914Z,1.90
2022-09-07T11:35:35.034Z,2.22
2022-09-07T11:38:10.409Z,1.90
2022-09-07T11:40:41.806Z,1.90
2022-09-07T11:43:20.489Z,2.00
2022-09-07T11:45:49.387Z,2.20
2022-09-07T11:48:19.851Z,1.95
2022-09-07T11:50:48.314Z,2.35
2022-09-07T11:53:19.763Z,2.10
2022-09-07T11:55:48.374Z,2.00
2022-09-07T11:58:34.905Z,2.25
2022-09-07T12:01:15.979Z,2.17
2022-09-07T12:03:59.227Z,2.05
2022-09-07T12:06:37.984Z,2.30
2022-09-07T12:09:20.113Z,2.03
2022-09-07T12:12:05.557Z,1.90
2022-09-07T12:14:38.081Z,1.85
2022-09-07T12:17:04.345Z,1.65
2022-09-07T12:19:30.672Z,1.90
2022-09-07T12:21:59.525Z,1.90
2022-09-07T12:24:32.378Z,1.92
2022-09-07T12:27:09.637Z,2.22
2022-09-07T12:29:36.042Z,1.80
2022-09-07T12:34:52.117Z,2.53
2022-09-07T12:37:27.364Z,2.92
2022-09-07T12:40:12.530Z,2.50
2022-09-07T12:42:38.971Z,2.45
2022-09-07T12:45:24.170Z,2.60
2022-09-07T12:47:58.631Z,2.20
2022-09-07T12:50:29.609Z,3.15
2022-09-07T12:53:20.855Z,3.92
2022-09-07T12:56:21.235Z,3.13
2022-09-07T12:58:57.650Z,2.17
2022-09-07T13:01:31.482Z,1.20
2022-09-07T13:09:37.824Z,1.27
2022-09-07T13:15:28.734Z,1.40
2022-09-07T13:17:56.320Z,1.90
2022-09-07T13:20:30.003Z,1.58
2022-09-07T13:22:57.545Z,1.90
2022-09-07T13:25:27.053Z,2.05
2022-09-07T13:27:53.377Z,1.88
2022-09-07T13:30:22.284Z,1.90
2022-09-07T13:35:34.990Z,2.10
2022-09-07T13:38:02.331Z,2.10
2022-09-07T13:40:30.542Z,2.10
2022-09-07T13:42:58.480Z,2.05
2022-09-07T13:45:36.442Z,2.00
2022-09-07T13:48:05.925Z,2.25
2022-09-07T13:50:38.378Z,2.03
2022-09-07T13:53:15.632Z,2.30
2022-09-07T13:55:45.023Z,1.95
2022-09-07T13:58:14.519Z,1.80
2022-09-07T14:00:54.816Z,2.00
2022-09-07T14:03:22.349Z,2.40
2022-09-07T14:05:48.669Z,1.90
2022-09-07T14:08:25.352Z,1.98
2022-09-07T14:10:51.741Z,2.30
2022-09-07T14:13:18.085Z,2.28
2022-09-07T14:15:45.791Z,2.20
2022-09-07T14:18:13.517Z,2.22
2022-09-07T14:20:47.782Z,2.33
2022-09-07T14:23:22.246Z,2.30
2022-09-07T14:28:39.243Z,2.50
2022-09-07T14:31:09.099Z,2.10
2022-09-07T14:33:35.633Z,2.17
2022-09-07T14:36:17.846Z,2.55
2022-09-07T14:39:04.792Z,2.30
2022-09-07T14:41:33.989Z,2.65
2022-09-07T14:44:00.533Z,2.45
2022-09-07T14:46:26.852Z,2.38
2022-09-07T14:49:01.616Z,2.22
2022-09-07T14:51:36.148Z,2.42
2022-09-07T14:54:05.619Z,2.50
2022-09-07T14:56:34.092Z,2.20
2022-09-07T14:59:00.389Z,2.50
2022-09-07T15:01:42.355Z,2.22
2022-09-07T15:04:16.686Z,2.55
2022-09-07T15:09:35.497Z,2.35
2022-09-07T15:12:03.294Z,2.60
2022-09-07T15:14:29.673Z,2.80
2022-09-07T15:19:50.180Z,2.58
2022-09-07T15:22:17.200Z,2.63
2022-09-07T15:24:43.827Z,2.70
2022-09-07T15:27:28.578Z,2.60
2022-09-07T15:29:54.860Z,2.45
2022-09-07T15:32:21.250Z,1.92
2022-09-07T15:34:47.526Z,2.53
2022-09-07T15:40:01.873Z,2.30
2022-09-07T15:45:15.306Z,2.70
2022-09-07T15:47:47.128Z,3.00
2022-09-07T15:50:14.197Z,2.75
2022-09-07T15:52:40.549Z,2.50
2022-09-07T15:55:08.641Z,2.60
2022-09-07T15:57:59.369Z,2.60
2022-09-07T16:00:22.394Z,2.60
2022-09-07T16:03:05.667Z,2.80
2022-09-07T16:10:53.481Z,2.67
2022-09-07T16:13:20.382Z,2.65
2022-09-07T16:15:47.295Z,2.45
2022-09-07T16:18:16.524Z,3.00
2022-09-07T16:20:43.642Z,3.00
2022-09-07T16:23:14.332Z,2.97
2022-09-07T16:25:43.056Z,2.63
2022-09-07T16:28:09.443Z,3.00
2022-09-07T16:30:38.907Z,2.55
2022-09-07T16:33:05.372Z,2.80
2022-09-07T16:35:32.788Z,2.92
2022-09-07T16:40:46.145Z,2.70
2022-09-07T16:43:12.421Z,2.65
2022-09-07T16:48:24.926Z,7.60
2022-09-07T16:50:55.428Z,3.40
2022-09-07T16:53:27.348Z,2.90
2022-09-07T16:55:59.321Z,3.20
2022-09-07T16:58:40.978Z,5.32
2022-09-07T17:01:08.685Z,8.10
2022-09-07T17:03:38.868Z,12.25
2022-09-07T17:06:07.024Z,4.35
2022-09-07T17:08:34.379Z,3.13
2022-09-07T17:11:08.363Z,3.05
2022-09-07T17:13:35.567Z,2.92
2022-09-07T17:16:06.246Z,2.50
2022-09-07T17:21:19.773Z,2.20
2022-09-07T17:23:51.909Z,2.80
2022-09-07T17:26:22.379Z,2.17
2022-09-07T17:28:49.958Z,2.20
2022-09-07T17:34:07.213Z,2.40
2022-09-07T17:36:34.400Z,2.28
2022-09-07T17:39:18.135Z,2.50
2022-09-07T17:41:45.886Z,3.17
2022-09-07T17:44:12.312Z,3.08
2022-09-07T17:46:38.591Z,3.53
2022-09-07T17:49:07.776Z,3.72
2022-09-07T17:51:34.123Z,3.85
2022-09-07T17:54:02.565Z,3.75
2022-09-07T17:56:29.670Z,3.53
2022-09-07T18:00:10.602Z,3.63
2022-09-07T18:01:42.306Z,3.67
2022-09-07T18:04:08.812Z,3.58
2022-09-07T18:06:35.105Z,3.40
2022-09-07T18:09:05.077Z,3.10
2022-09-07T18:11:48.632Z,2.88
2022-09-07T18:14:15.698Z,2.53
2022-09-07T18:16:43.226Z,2.00
2022-09-07T18:19:10.873Z,1.90
2022-09-07T18:21:37.746Z,1.52
2022-09-07T18:24:07.282Z,1.75
2022-09-07T18:26:34.418Z,1.98
2022-09-07T18:29:08.494Z,1.55
2022-09-07T18:31:39.849Z,1.52
2022-09-07T18:34:06.228Z,1.60
2022-09-07T18:36:33.985Z,1.95
2022-09-07T18:39:01.068Z,2.08
2022-09-07T18:41:27.374Z,2.55
2022-09-07T18:43:55.485Z,2.63
2022-09-07T18:46:23.047Z,3.50
2022-09-07T18:48:49.602Z,2.80
2022-09-07T18:51:16.370Z,2.08
2022-09-07T18:53:43.408Z,1.80
2022-09-07T18:56:13.792Z,2.03
2022-09-07T18:58:41.003Z,2.17
2022-09-07T19:01:12.211Z,2.00
2022-09-07T19:03:38.579Z,1.92
2022-09-07T19:06:13.000Z,1.60
2022-09-07T19:08:40.406Z,1.63
2022-09-07T19:11:10.780Z,2.13
2022-09-07T19:13:37.621Z,3.25
2022-09-07T19:16:04.081Z,3.80
2022-09-07T19:18:30.449Z,4.00
2022-09-07T19:21:01.338Z,3.78
2022-09-07T19:23:27.657Z,3.88
2022-09-07T19:25:55.104Z,3.30
2022-09-07T19:28:21.600Z,3.22
2022-09-07T19:30:47.869Z,3.78
2022-09-07T19:33:14.164Z,3.33
2022-09-07T19:35:40.472Z,3.15
2022-09-07T19:38:06.759Z,3.60
2022-09-07T19:40:33.016Z,3.30
2022-09-07T19:42:59.339Z,3.38
2022-09-07T19:45:25.841Z,3.58
2022-09-07T19:47:52.211Z,3.90
2022-09-07T19:50:20.704Z,6.75
2022-09-07T19:52:46.986Z,9.27
2022-09-07T19:55:13.445Z,4.63
2022-09-07T19:57:39.733Z,4.50
2022-09-07T20:00:06.505Z,4.10
2022-09-07T20:02:38.221Z,3.78
2022-09-07T20:05:04.688Z,3.63
2022-09-07T20:07:30.958Z,3.83
2022-09-07T20:09:57.265Z,3.60
2022-09-07T20:12:23.577Z,4.40
2022-09-07T20:14:50.387Z,3.78
2022-09-07T20:17:16.694Z,3.80
2022-09-07T20:19:43.061Z,4.50
2022-09-07T20:22:09.387Z,4.20
2022-09-07T20:24:36.724Z,4.15
2022-09-07T20:27:03.040Z,5.13
2022-09-07T20:29:31.225Z,5.45
2022-09-07T20:31:58.414Z,5.40
2022-09-07T20:34:25.340Z,5.32
2022-09-07T20:36:52.356Z,5.22
2022-09-07T20:39:18.628Z,4.97
2022-09-07T20:41:44.934Z,4.40
2022-09-07T20:44:11.406Z,4.30
2022-09-07T20:46:38.416Z,4.43
2022-09-07T20:49:05.202Z,4.35
2022-09-07T20:51:31.856Z,4.57
2022-09-07T20:53:58.321Z,4.22
2022-09-07T20:56:25.811Z,4.03
2022-09-07T20:58:56.681Z,4.28
2022-09-07T21:01:23.060Z,4.32
2022-09-07T21:03:50.664Z,4.50
2022-09-07T21:06:17.653Z,4.32
2022-09-07T21:08:44.526Z,4.20
2022-09-07T21:11:12.207Z,4.30
2022-09-07T21:13:39.220Z,4.97
2022-09-07T21:16:06.831Z,4.82
2022-09-07T21:18:33.629Z,4.95
2022-09-07T21:21:19.248Z,4.68
2022-09-07T21:23:46.938Z,5.07
2022-09-07T21:26:13.212Z,4.90
2022-09-07T21:28:39.478Z,4.88
2022-09-07T21:31:07.121Z,5.00
2022-09-07T21:33:35.105Z,4.90
2022-09-07T21:36:05.634Z,4.32
2022-09-07T21:38:32.021Z,3.97
2022-09-07T21:40:58.302Z,4.25
2022-09-07T21:43:24.585Z,4.30
2022-09-07T21:45:50.878Z,3.40
2022-09-07T21:48:17.143Z,3.67
2022-09-07T21:50:44.910Z,3.85
2022-09-07T21:53:11.336Z,3.75
2022-09-07T21:55:37.666Z,4.20
2022-09-07T21:58:03.998Z,4.28
2022-09-07T22:00:30.404Z,4.38
2022-09-07T22:02:56.804Z,4.30
2022-09-07T22:05:23.075Z,4.47
2022-09-07T22:07:49.375Z,4.50
2022-09-07T22:10:15.659Z,4.25
2022-09-07T22:12:42.025Z,4.53
2022-09-07T22:15:08.493Z,4.18
2022-09-07T22:17:34.887Z,4.40
2022-09-07T22:20:01.237Z,4.03
2022-09-07T22:22:27.506Z,4.10
2022-09-07T22:24:53.841Z,4.07
2022-09-07T22:27:20.117Z,4.03
2022-09-07T22:29:46.430Z,4.10
2022-09-07T22:32:12.676Z,3.78
2022-09-07T22:34:39.002Z,3.65
2022-09-07T22:37:05.277Z,3.30
2022-09-07T22:39:31.675Z,3.40
2022-09-07T22:41:58.035Z,3.13
2022-09-07T22:44:26.342Z,3.45
2022-09-07T22:46:52.751Z,3.42
2022-09-07T22:49:19.061Z,4.18
2022-09-07T22:51:45.631Z,4.10
2022-09-07T22:54:12.220Z,4.15
2022-09-07T22:56:39.255Z,3.95
2022-09-07T22:59:07.429Z,4.28
2022-09-07T23:01:33.830Z,4.35
2022-09-07T23:04:00.744Z,3.72
2022-09-07T23:06:28.460Z,3.85
2022-09-07T23:08:56.599Z,3.97
2022-09-07T23:11:24.141Z,4.22
2022-09-07T23:13:51.930Z,4.30
2022-09-07T23:16:18.604Z,3.50
2022-09-07T23:18:45.044Z,3.80
2022-09-07T23:21:11.344Z,3.78
2022-09-07T23:23:38.469Z,3.72
2022-09-07T23:26:05.332Z,4.38
2022-09-07T23:28:31.990Z,4.05
2022-09-07T23:30:58.480Z,4.03
2022-09-07T23:33:26.087Z,4.45
2022-09-07T23:36:10.750Z,4.60
2022-09-07T23:38:37.014Z,4.50
2022-09-07T23:41:03.306Z,4.50
2022-09-07T23:43:30.453Z,4.35
2022-09-07T23:45:57.213Z,4.60
2022-09-07T23:48:23.605Z,4.30
2022-09-07T23:50:50.154Z,3.90
2022-09-07T23:53:17.884Z,4.35
2022-09-07T23:55:44.179Z,4.55
2022-09-07T23:58:10.489Z,4.38
